sensor_id;sensor_type;location;lat;lon;timestamp;P1;durP1;ratioP1;P2;durP2;ratioP2
44784;SDS011;30507;53.160;8.210;2023-04-25T00:00:52;0.20;;;0.00;;
44784;SDS011;30507;53.160;8.210;2023-04-25T00:03:17;0.53;;;0.37;;
44784;SDS011;30507;53.160;8.210;2023-04-25T00:05:43;0.40;;;0.20;;
44784;SDS011;30507;53.160;8.210;2023-04-25T00:08:08;0.30;;;0.30;;
44784;SDS011;30507;53.160;8.210;2023-04-25T00:10:34;2.10;;;0.93;;
44784;SDS011;30507;53.160;8.210;2023-04-25T00:12:59;0.60;;;0.20;;
44784;SDS011;30507;53.160;8.210;2023-04-25T00:15:27;0.63;;;0.63;;
44784;SDS011;30507;53.160;8.210;2023-04-25T00:17:52;0.50;;;0.30;;
44784;SDS011;30507;53.160;8.210;2023-04-25T00:20:18;0.40;;;0.40;;
44784;SDS011;30507;53.160;8.210;2023-04-25T00:22:43;0.55;;;0.40;;
44784;SDS011;30507;53.160;8.210;2023-04-25T00:25:08;0.10;;;0.10;;
44784;SDS011;30507;53.160;8.210;2023-04-25T00:27:33;0.30;;;0.30;;
44784;SDS011;30507;53.160;8.210;2023-04-25T00:29:58;0.57;;;0.37;;
44784;SDS011;30507;53.160;8.210;2023-04-25T00:32:23;0.37;;;0.37;;
44784;SDS011;30507;53.160;8.210;2023-04-25T00:34:49;0.60;;;0.30;;
44784;SDS011;30507;53.160;8.210;2023-04-25T00:37:14;0.40;;;0.40;;
44784;SDS011;30507;53.160;8.210;2023-04-25T00:39:39;0.57;;;0.57;;
44784;SDS011;30507;53.160;8.210;2023-04-25T00:42:04;0.20;;;0.20;;
44784;SDS011;30507;53.160;8.210;2023-04-25T00:44:30;0.30;;;0.22;;
44784;SDS011;30507;53.160;8.210;2023-04-25T00:46:57;1.15;;;0.40;;
44784;SDS011;30507;53.160;8.210;2023-04-25T00:49:22;0.73;;;0.30;;
44784;SDS011;30507;53.160;8.210;2023-04-25T00:51:47;0.38;;;0.38;;
44784;SDS011;30507;53.160;8.210;2023-04-25T00:54:12;1.75;;;0.25;;
44784;SDS011;30507;53.160;8.210;2023-04-25T00:56:38;0.55;;;0.25;;
44784;SDS011;30507;53.160;8.210;2023-04-25T00:59:03;0.47;;;0.30;;
44784;SDS011;30507;53.160;8.210;2023-04-25T01:01:29;0.20;;;0.20;;
44784;SDS011;30507;53.160;8.210;2023-04-25T01:03:54;0.15;;;0.10;;
44784;SDS011;30507;53.160;8.210;2023-04-25T01:06:20;0.20;;;0.20;;
44784;SDS011;30507;53.160;8.210;2023-04-25T01:08:47;0.40;;;0.40;;
44784;SDS011;30507;53.160;8.210;2023-04-25T01:11:12;0.38;;;0.38;;
44784;SDS011;30507;53.160;8.210;2023-04-25T01:13:37;0.45;;;0.30;;
44784;SDS011;30507;53.160;8.210;2023-04-25T01:16:03;2.40;;;0.60;;
44784;SDS011;30507;53.160;8.210;2023-04-25T01:18:28;0.30;;;0.30;;
44784;SDS011;30507;53.160;8.210;2023-04-25T01:20:53;0.97;;;0.30;;
44784;SDS011;30507;53.160;8.210;2023-04-25T01:23:22;1.25;;;0.60;;
44784;SDS011;30507;53.160;8.210;2023-04-25T01:25:48;1.08;;;0.45;;
44784;SDS011;30507;53.160;8.210;2023-04-25T01:28:13;2.17;;;0.95;;
44784;SDS011;30507;53.160;8.210;2023-04-25T01:30:38;0.50;;;0.50;;
44784;SDS011;30507;53.160;8.210;2023-04-25T01:33:04;0.20;;;0.20;;
44784;SDS011;30507;53.160;8.210;2023-04-25T01:35:30;0.63;;;0.43;;
44784;SDS011;30507;53.160;8.210;2023-04-25T01:37:55;0.20;;;0.20;;
44784;SDS011;30507;53.160;8.210;2023-04-25T01:40:21;0.32;;;0.32;;
44784;SDS011;30507;53.160;8.210;2023-04-25T01:42:47;0.55;;;0.32;;
44784;SDS011;30507;53.160;8.210;2023-04-25T01:45:12;0.37;;;0.33;;
44784;SDS011;30507;53.160;8.210;2023-04-25T01:47:38;0.70;;;0.30;;
44784;SDS011;30507;53.160;8.210;2023-04-25T01:50:04;0.38;;;0.32;;
44784;SDS011;30507;53.160;8.210;2023-04-25T01:52:30;0.45;;;0.43;;
44784;SDS011;30507;53.160;8.210;2023-04-25T01:54:55;0.67;;;0.60;;
44784;SDS011;30507;53.160;8.210;2023-04-25T01:57:21;0.28;;;0.28;;
44784;SDS011;30507;53.160;8.210;2023-04-25T01:59:46;1.40;;;0.30;;
44784;SDS011;30507;53.160;8.210;2023-04-25T02:02:12;1.50;;;1.07;;
44784;SDS011;30507;53.160;8.210;2023-04-25T02:04:37;0.47;;;0.30;;
44784;SDS011;30507;53.160;8.210;2023-04-25T02:07:05;0.30;;;0.22;;
44784;SDS011;30507;53.160;8.210;2023-04-25T02:09:30;0.20;;;0.20;;
44784;SDS011;30507;53.160;8.210;2023-04-25T02:11:55;0.20;;;0.20;;
44784;SDS011;30507;53.160;8.210;2023-04-25T02:14:20;0.43;;;0.32;;
44784;SDS011;30507;53.160;8.210;2023-04-25T02:16:46;0.70;;;0.30;;
44784;SDS011;30507;53.160;8.210;2023-04-25T02:19:11;0.55;;;0.55;;
44784;SDS011;30507;53.160;8.210;2023-04-25T02:21:36;0.10;;;0.10;;
44784;SDS011;30507;53.160;8.210;2023-04-25T02:24:02;0.57;;;0.20;;
44784;SDS011;30507;53.160;8.210;2023-04-25T02:26:27;0.25;;;0.25;;
44784;SDS011;30507;53.160;8.210;2023-04-25T02:28:52;0.20;;;0.20;;
44784;SDS011;30507;53.160;8.210;2023-04-25T02:31:17;0.20;;;0.20;;
44784;SDS011;30507;53.160;8.210;2023-04-25T02:33:42;1.05;;;0.32;;
44784;SDS011;30507;53.160;8.210;2023-04-25T02:36:08;0.28;;;0.13;;
44784;SDS011;30507;53.160;8.210;2023-04-25T02:38:33;0.40;;;0.40;;
44784;SDS011;30507;53.160;8.210;2023-04-25T02:40:58;0.50;;;0.50;;
44784;SDS011;30507;53.160;8.210;2023-04-25T02:43:23;0.38;;;0.30;;
44784;SDS011;30507;53.160;8.210;2023-04-25T02:45:48;0.30;;;0.20;;
44784;SDS011;30507;53.160;8.210;2023-04-25T02:48:14;0.40;;;0.30;;
44784;SDS011;30507;53.160;8.210;2023-04-25T02:50:39;0.83;;;0.60;;
44784;SDS011;30507;53.160;8.210;2023-04-25T02:53:04;1.00;;;0.57;;
44784;SDS011;30507;53.160;8.210;2023-04-25T02:55:29;0.20;;;0.20;;
44784;SDS011;30507;53.160;8.210;2023-04-25T02:57:54;0.30;;;0.30;;
44784;SDS011;30507;53.160;8.210;2023-04-25T03:00:22;0.38;;;0.32;;
44784;SDS011;30507;53.160;8.210;2023-04-25T03:02:47;0.40;;;0.40;;
44784;SDS011;30507;53.160;8.210;2023-04-25T03:05:13;0.30;;;0.30;;
44784;SDS011;30507;53.160;8.210;2023-04-25T03:07:38;0.47;;;0.33;;
44784;SDS011;30507;53.160;8.210;2023-04-25T03:10:04;0.20;;;0.17;;
44784;SDS011;30507;53.160;8.210;2023-04-25T03:12:30;0.30;;;0.30;;
44784;SDS011;30507;53.160;8.210;2023-04-25T03:14:55;0.40;;;0.40;;
44784;SDS011;30507;53.160;8.210;2023-04-25T03:17:20;0.68;;;0.35;;
44784;SDS011;30507;53.160;8.210;2023-04-25T03:19:46;0.47;;;0.32;;
44784;SDS011;30507;53.160;8.210;2023-04-25T03:22:11;0.32;;;0.32;;
44784;SDS011;30507;53.160;8.210;2023-04-25T03:24:36;0.30;;;0.30;;
44784;SDS011;30507;53.160;8.210;2023-04-25T03:27:02;0.40;;;0.30;;
44784;SDS011;30507;53.160;8.210;2023-04-25T03:29:27;0.52;;;0.40;;
44784;SDS011;30507;53.160;8.210;2023-04-25T03:31:53;0.40;;;0.30;;
44784;SDS011;30507;53.160;8.210;2023-04-25T03:34:18;0.30;;;0.30;;
44784;SDS011;30507;53.160;8.210;2023-04-25T03:36:43;1.40;;;0.20;;
44784;SDS011;30507;53.160;8.210;2023-04-25T03:39:09;0.77;;;0.60;;
44784;SDS011;30507;53.160;8.210;2023-04-25T03:41:34;0.10;;;0.10;;
44784;SDS011;30507;53.160;8.210;2023-04-25T03:43:59;0.53;;;0.10;;
44784;SDS011;30507;53.160;8.210;2023-04-25T03:46:24;0.40;;;0.40;;
44784;SDS011;30507;53.160;8.210;2023-04-25T03:48:49;0.13;;;0.10;;
44784;SDS011;30507;53.160;8.210;2023-04-25T03:51:15;0.43;;;0.30;;
44784;SDS011;30507;53.160;8.210;2023-04-25T03:53:40;0.40;;;0.30;;
44784;SDS011;30507;53.160;8.210;2023-04-25T03:56:05;0.30;;;0.30;;
44784;SDS011;30507;53.160;8.210;2023-04-25T03:58:31;0.65;;;0.63;;
44784;SDS011;30507;53.160;8.210;2023-04-25T04:00:56;0.35;;;0.30;;
44784;SDS011;30507;53.160;8.210;2023-04-25T04:03:21;0.30;;;0.30;;
44784;SDS011;30507;53.160;8.210;2023-04-25T04:05:46;0.63;;;0.50;;
44784;SDS011;30507;53.160;8.210;2023-04-25T04:08:12;0.60;;;0.55;;
44784;SDS011;30507;53.160;8.210;2023-04-25T04:10:37;0.20;;;0.20;;
44784;SDS011;30507;53.160;8.210;2023-04-25T04:13:02;0.93;;;0.63;;
44784;SDS011;30507;53.160;8.210;2023-04-25T04:15:27;0.37;;;0.30;;
44784;SDS011;30507;53.160;8.210;2023-04-25T04:17:53;0.50;;;0.40;;
44784;SDS011;30507;53.160;8.210;2023-04-25T04:20:19;0.47;;;0.40;;
44784;SDS011;30507;53.160;8.210;2023-04-25T04:22:44;0.85;;;0.43;;
44784;SDS011;30507;53.160;8.210;2023-04-25T04:25:09;0.68;;;0.30;;
44784;SDS011;30507;53.160;8.210;2023-04-25T04:27:36;0.88;;;0.60;;
44784;SDS011;30507;53.160;8.210;2023-04-25T04:30:01;0.15;;;0.15;;
44784;SDS011;30507;53.160;8.210;2023-04-25T04:32:28;1.55;;;0.30;;
44784;SDS011;30507;53.160;8.210;2023-04-25T04:34:55;0.30;;;0.30;;
44784;SDS011;30507;53.160;8.210;2023-04-25T04:37:20;2.25;;;0.40;;
44784;SDS011;30507;53.160;8.210;2023-04-25T04:39:45;1.00;;;0.40;;
44784;SDS011;30507;53.160;8.210;2023-04-25T04:42:10;2.15;;;0.50;;
44784;SDS011;30507;53.160;8.210;2023-04-25T04:44:36;1.35;;;0.70;;
44784;SDS011;30507;53.160;8.210;2023-04-25T04:47:01;1.37;;;0.73;;
44784;SDS011;30507;53.160;8.210;2023-04-25T04:49:28;1.85;;;0.88;;
44784;SDS011;30507;53.160;8.210;2023-04-25T04:51:53;4.67;;;0.70;;
44784;SDS011;30507;53.160;8.210;2023-04-25T04:54:19;3.10;;;0.60;;
44784;SDS011;30507;53.160;8.210;2023-04-25T04:56:45;2.63;;;1.25;;
44784;SDS011;30507;53.160;8.210;2023-04-25T04:59:10;2.43;;;0.70;;
44784;SDS011;30507;53.160;8.210;2023-04-25T05:01:35;1.60;;;0.80;;
44784;SDS011;30507;53.160;8.210;2023-04-25T05:04:00;2.03;;;0.50;;
44784;SDS011;30507;53.160;8.210;2023-04-25T05:06:26;3.92;;;1.40;;
44784;SDS011;30507;53.160;8.210;2023-04-25T05:08:51;2.40;;;0.90;;
44784;SDS011;30507;53.160;8.210;2023-04-25T05:11:17;4.78;;;1.27;;
44784;SDS011;30507;53.160;8.210;2023-04-25T05:13:42;5.50;;;1.17;;
44784;SDS011;30507;53.160;8.210;2023-04-25T05:16:08;3.07;;;0.97;;
44784;SDS011;30507;53.160;8.210;2023-04-25T05:18:33;2.72;;;1.45;;
44784;SDS011;30507;53.160;8.210;2023-04-25T05:20:58;1.13;;;0.60;;
44784;SDS011;30507;53.160;8.210;2023-04-25T05:23:23;1.20;;;0.60;;
44784;SDS011;30507;53.160;8.210;2023-04-25T05:25:48;3.08;;;0.75;;
44784;SDS011;30507;53.160;8.210;2023-04-25T05:28:13;3.67;;;0.80;;
44784;SDS011;30507;53.160;8.210;2023-04-25T05:30:39;4.20;;;1.13;;
44784;SDS011;30507;53.160;8.210;2023-04-25T05:33:04;2.47;;;0.75;;
44784;SDS011;30507;53.160;8.210;2023-04-25T05:35:29;1.20;;;0.73;;
44784;SDS011;30507;53.160;8.210;2023-04-25T05:37:54;2.90;;;0.93;;
44784;SDS011;30507;53.160;8.210;2023-04-25T05:40:20;1.60;;;0.70;;
44784;SDS011;30507;53.160;8.210;2023-04-25T05:42:45;1.80;;;0.63;;
44784;SDS011;30507;53.160;8.210;2023-04-25T05:45:10;1.27;;;0.80;;
44784;SDS011;30507;53.160;8.210;2023-04-25T05:47:35;2.10;;;0.77;;
44784;SDS011;30507;53.160;8.210;2023-04-25T05:50:00;2.10;;;0.50;;
44784;SDS011;30507;53.160;8.210;2023-04-25T05:52:26;2.57;;;1.20;;
44784;SDS011;30507;53.160;8.210;2023-04-25T05:54:51;2.23;;;0.40;;
44784;SDS011;30507;53.160;8.210;2023-04-25T05:57:20;1.13;;;0.30;;
44784;SDS011;30507;53.160;8.210;2023-04-25T05:59:46;1.67;;;0.52;;
44784;SDS011;30507;53.160;8.210;2023-04-25T06:02:11;1.60;;;0.52;;
44784;SDS011;30507;53.160;8.210;2023-04-25T06:04:36;2.22;;;0.77;;
44784;SDS011;30507;53.160;8.210;2023-04-25T06:07:01;2.65;;;0.60;;
44784;SDS011;30507;53.160;8.210;2023-04-25T06:09:26;4.20;;;0.45;;
44784;SDS011;30507;53.160;8.210;2023-04-25T06:11:51;0.98;;;0.50;;
44784;SDS011;30507;53.160;8.210;2023-04-25T06:14:16;1.38;;;0.52;;
44784;SDS011;30507;53.160;8.210;2023-04-25T06:16:41;1.13;;;0.90;;
44784;SDS011;30507;53.160;8.210;2023-04-25T06:19:07;0.60;;;0.40;;
44784;SDS011;30507;53.160;8.210;2023-04-25T06:21:32;0.50;;;0.30;;
44784;SDS011;30507;53.160;8.210;2023-04-25T06:23:57;5.38;;;0.73;;
44784;SDS011;30507;53.160;8.210;2023-04-25T06:26:22;1.03;;;0.40;;
44784;SDS011;30507;53.160;8.210;2023-04-25T06:28:47;2.10;;;0.77;;
44784;SDS011;30507;53.160;8.210;2023-04-25T06:31:12;1.92;;;0.50;;
44784;SDS011;30507;53.160;8.210;2023-04-25T06:33:37;0.55;;;0.40;;
44784;SDS011;30507;53.160;8.210;2023-04-25T06:36:03;0.65;;;0.50;;
44784;SDS011;30507;53.160;8.210;2023-04-25T06:38:28;0.93;;;0.93;;
44784;SDS011;30507;53.160;8.210;2023-04-25T06:40:53;0.73;;;0.30;;
44784;SDS011;30507;53.160;8.210;2023-04-25T06:43:18;0.50;;;0.40;;
44784;SDS011;30507;53.160;8.210;2023-04-25T06:45:43;0.97;;;0.50;;
44784;SDS011;30507;53.160;8.210;2023-04-25T06:48:09;0.82;;;0.40;;
44784;SDS011;30507;53.160;8.210;2023-04-25T06:50:34;0.40;;;0.38;;
44784;SDS011;30507;53.160;8.210;2023-04-25T06:52:59;0.45;;;0.32;;
44784;SDS011;30507;53.160;8.210;2023-04-25T06:55:26;0.43;;;0.43;;
44784;SDS011;30507;53.160;8.210;2023-04-25T06:57:51;0.50;;;0.40;;
44784;SDS011;30507;53.160;8.210;2023-04-25T07:00:16;0.45;;;0.40;;
44784;SDS011;30507;53.160;8.210;2023-04-25T07:02:42;0.85;;;0.50;;
44784;SDS011;30507;53.160;8.210;2023-04-25T07:05:08;0.30;;;0.30;;
44784;SDS011;30507;53.160;8.210;2023-04-25T07:07:33;0.73;;;0.20;;
44784;SDS011;30507;53.160;8.210;2023-04-25T07:09:58;0.90;;;0.47;;
44784;SDS011;30507;53.160;8.210;2023-04-25T07:12:24;0.30;;;0.30;;
44784;SDS011;30507;53.160;8.210;2023-04-25T07:14:50;1.23;;;0.75;;
44784;SDS011;30507;53.160;8.210;2023-04-25T07:17:15;2.75;;;0.47;;
44784;SDS011;30507;53.160;8.210;2023-04-25T07:19:40;0.20;;;0.20;;
44784;SDS011;30507;53.160;8.210;2023-04-25T07:22:06;0.83;;;0.80;;
44784;SDS011;30507;53.160;8.210;2023-04-25T07:24:31;0.60;;;0.28;;
44784;SDS011;30507;53.160;8.210;2023-04-25T07:26:56;0.30;;;0.30;;
44784;SDS011;30507;53.160;8.210;2023-04-25T07:29:21;0.50;;;0.30;;
44784;SDS011;30507;53.160;8.210;2023-04-25T07:31:46;0.40;;;0.13;;
44784;SDS011;30507;53.160;8.210;2023-04-25T07:34:12;0.47;;;0.43;;
44784;SDS011;30507;53.160;8.210;2023-04-25T07:36:37;0.40;;;0.20;;
44784;SDS011;30507;53.160;8.210;2023-04-25T07:39:02;0.50;;;0.20;;
44784;SDS011;30507;53.160;8.210;2023-04-25T07:41:27;0.57;;;0.57;;
44784;SDS011;30507;53.160;8.210;2023-04-25T07:43:52;0.63;;;0.20;;
44784;SDS011;30507;53.160;8.210;2023-04-25T07:46:17;0.30;;;0.05;;
44784;SDS011;30507;53.160;8.210;2023-04-25T07:48:42;0.43;;;0.30;;
44784;SDS011;30507;53.160;8.210;2023-04-25T07:51:08;0.20;;;0.20;;
44784;SDS011;30507;53.160;8.210;2023-04-25T07:53:33;0.40;;;0.35;;
44784;SDS011;30507;53.160;8.210;2023-04-25T07:55:59;0.25;;;0.20;;
44784;SDS011;30507;53.160;8.210;2023-04-25T07:58:24;0.40;;;0.20;;
44784;SDS011;30507;53.160;8.210;2023-04-25T08:00:50;1.00;;;0.20;;
44784;SDS011;30507;53.160;8.210;2023-04-25T08:03:15;0.57;;;0.30;;
44784;SDS011;30507;53.160;8.210;2023-04-25T08:05:40;0.10;;;0.10;;
44784;SDS011;30507;53.160;8.210;2023-04-25T08:08:05;0.87;;;0.50;;
44784;SDS011;30507;53.160;8.210;2023-04-25T08:10:31;0.50;;;0.40;;
44784;SDS011;30507;53.160;8.210;2023-04-25T08:12:57;0.57;;;0.10;;
44784;SDS011;30507;53.160;8.210;2023-04-25T08:15:22;0.45;;;0.20;;
44784;SDS011;30507;53.160;8.210;2023-04-25T08:17:47;0.20;;;0.20;;
44784;SDS011;30507;53.160;8.210;2023-04-25T08:20:12;0.57;;;0.50;;
44784;SDS011;30507;53.160;8.210;2023-04-25T08:22:37;0.87;;;0.20;;
44784;SDS011;30507;53.160;8.210;2023-04-25T08:25:02;0.60;;;0.30;;
44784;SDS011;30507;53.160;8.210;2023-04-25T08:27:28;0.30;;;0.30;;
44784;SDS011;30507;53.160;8.210;2023-04-25T08:29:53;0.20;;;0.20;;
44784;SDS011;30507;53.160;8.210;2023-04-25T08:32:18;0.10;;;0.10;;
44784;SDS011;30507;53.160;8.210;2023-04-25T08:34:43;0.10;;;0.10;;
44784;SDS011;30507;53.160;8.210;2023-04-25T08:37:09;0.10;;;0.10;;
44784;SDS011;30507;53.160;8.210;2023-04-25T08:39:35;0.30;;;0.10;;
44784;SDS011;30507;53.160;8.210;2023-04-25T08:42:00;0.10;;;0.10;;
44784;SDS011;30507;53.160;8.210;2023-04-25T08:44:25;0.30;;;0.13;;
44784;SDS011;30507;53.160;8.210;2023-04-25T08:46:51;0.00;;;0.00;;
44784;SDS011;30507;53.160;8.210;2023-04-25T08:49:17;0.00;;;0.00;;
44784;SDS011;30507;53.160;8.210;2023-04-25T08:51:44;0.40;;;0.35;;
44784;SDS011;30507;53.160;8.210;2023-04-25T08:54:11;0.38;;;0.22;;
44784;SDS011;30507;53.160;8.210;2023-04-25T08:56:38;0.35;;;0.30;;
44784;SDS011;30507;53.160;8.210;2023-04-25T08:59:03;0.70;;;0.20;;
44784;SDS011;30507;53.160;8.210;2023-04-25T09:01:29;0.32;;;0.30;;
44784;SDS011;30507;53.160;8.210;2023-04-25T09:03:54;0.20;;;0.20;;
44784;SDS011;30507;53.160;8.210;2023-04-25T09:06:19;0.20;;;0.20;;
44784;SDS011;30507;53.160;8.210;2023-04-25T09:08:45;0.47;;;0.28;;
44784;SDS011;30507;53.160;8.210;2023-04-25T09:11:10;0.50;;;0.20;;
44784;SDS011;30507;53.160;8.210;2023-04-25T09:13:37;0.35;;;0.22;;
44784;SDS011;30507;53.160;8.210;2023-04-25T09:16:02;0.15;;;0.15;;
44784;SDS011;30507;53.160;8.210;2023-04-25T09:18:28;0.50;;;0.10;;
44784;SDS011;30507;53.160;8.210;2023-04-25T09:21:05;0.43;;;0.20;;
44784;SDS011;30507;53.160;8.210;2023-04-25T09:23:30;0.35;;;0.20;;
44784;SDS011;30507;53.160;8.210;2023-04-25T09:25:55;0.23;;;0.20;;
44784;SDS011;30507;53.160;8.210;2023-04-25T09:28:24;0.20;;;0.20;;
44784;SDS011;30507;53.160;8.210;2023-04-25T09:30:56;0.10;;;0.10;;
44784;SDS011;30507;53.160;8.210;2023-04-25T09:33:26;0.30;;;0.15;;
44784;SDS011;30507;53.160;8.210;2023-04-25T09:35:52;0.30;;;0.20;;
44784;SDS011;30507;53.160;8.210;2023-04-25T09:38:20;0.20;;;0.10;;
44784;SDS011;30507;53.160;8.210;2023-04-25T09:40:46;0.10;;;0.10;;
44784;SDS011;30507;53.160;8.210;2023-04-25T09:43:18;0.10;;;0.00;;
44784;SDS011;30507;53.160;8.210;2023-04-25T09:45:43;0.38;;;0.10;;
44784;SDS011;30507;53.160;8.210;2023-04-25T09:48:11;0.22;;;0.13;;
44784;SDS011;30507;53.160;8.210;2023-04-25T09:50:36;0.40;;;0.25;;
44784;SDS011;30507;53.160;8.210;2023-04-25T09:53:04;0.68;;;0.25;;
44784;SDS011;30507;53.160;8.210;2023-04-25T09:55:32;0.10;;;0.10;;
44784;SDS011;30507;53.160;8.210;2023-04-25T09:58:00;0.20;;;0.10;;
44784;SDS011;30507;53.160;8.210;2023-04-25T10:00:28;0.15;;;0.10;;
44784;SDS011;30507;53.160;8.210;2023-04-25T10:02:53;0.10;;;0.10;;
44784;SDS011;30507;53.160;8.210;2023-04-25T10:05:19;0.40;;;0.10;;
44784;SDS011;30507;53.160;8.210;2023-04-25T10:07:44;0.10;;;0.10;;
44784;SDS011;30507;53.160;8.210;2023-04-25T10:10:09;0.10;;;0.10;;
44784;SDS011;30507;53.160;8.210;2023-04-25T10:12:37;0.33;;;0.10;;
44784;SDS011;30507;53.160;8.210;2023-04-25T10:15:04;0.25;;;0.25;;
44784;SDS011;30507;53.160;8.210;2023-04-25T10:17:30;0.20;;;0.20;;
44784;SDS011;30507;53.160;8.210;2023-04-25T10:19:56;0.10;;;0.10;;
44784;SDS011;30507;53.160;8.210;2023-04-25T10:22:27;0.20;;;0.20;;
44784;SDS011;30507;53.160;8.210;2023-04-25T10:24:54;0.10;;;0.00;;
44784;SDS011;30507;53.160;8.210;2023-04-25T10:27:20;0.30;;;0.20;;
44784;SDS011;30507;53.160;8.210;2023-04-25T10:29:45;0.40;;;0.30;;
44784;SDS011;30507;53.160;8.210;2023-04-25T10:32:24;0.22;;;0.22;;
44784;SDS011;30507;53.160;8.210;2023-04-25T10:34:50;0.40;;;0.10;;
44784;SDS011;30507;53.160;8.210;2023-04-25T10:37:15;0.20;;;0.10;;
44784;SDS011;30507;53.160;8.210;2023-04-25T10:39:40;0.10;;;0.00;;
44784;SDS011;30507;53.160;8.210;2023-04-25T10:42:09;0.95;;;0.10;;
44784;SDS011;30507;53.160;8.210;2023-04-25T10:44:35;0.20;;;0.20;;
44784;SDS011;30507;53.160;8.210;2023-04-25T10:47:01;0.00;;;0.00;;
44784;SDS011;30507;53.160;8.210;2023-04-25T10:49:34;1.13;;;0.45;;
44784;SDS011;30507;53.160;8.210;2023-04-25T10:54:41;0.10;;;0.10;;
44784;SDS011;30507;53.160;8.210;2023-04-25T10:57:06;0.13;;;0.10;;
44784;SDS011;30507;53.160;8.210;2023-04-25T10:59:31;0.10;;;0.10;;
44784;SDS011;30507;53.160;8.210;2023-04-25T11:01:56;0.00;;;0.00;;
44784;SDS011;30507;53.160;8.210;2023-04-25T11:04:22;0.65;;;0.17;;
44784;SDS011;30507;53.160;8.210;2023-04-25T11:09:32;0.28;;;0.10;;
44784;SDS011;30507;53.160;8.210;2023-04-25T11:11:58;0.30;;;0.30;;
44784;SDS011;30507;53.160;8.210;2023-04-25T11:14:23;0.22;;;0.10;;
44784;SDS011;30507;53.160;8.210;2023-04-25T11:16:52;0.22;;;0.10;;
44784;SDS011;30507;53.160;8.210;2023-04-25T11:19:19;0.20;;;0.20;;
44784;SDS011;30507;53.160;8.210;2023-04-25T11:21:44;0.10;;;0.08;;
44784;SDS011;30507;53.160;8.210;2023-04-25T11:24:09;0.20;;;0.20;;
44784;SDS011;30507;53.160;8.210;2023-04-25T11:26:34;0.50;;;0.30;;
44784;SDS011;30507;53.160;8.210;2023-04-25T11:29:02;0.32;;;0.32;;
44784;SDS011;30507;53.160;8.210;2023-04-25T11:31:27;0.43;;;0.15;;
44784;SDS011;30507;53.160;8.210;2023-04-25T11:33:54;0.10;;;0.10;;
44784;SDS011;30507;53.160;8.210;2023-04-25T11:36:22;0.32;;;0.30;;
44784;SDS011;30507;53.160;8.210;2023-04-25T11:38:47;0.22;;;0.22;;
44784;SDS011;30507;53.160;8.210;2023-04-25T11:41:12;0.07;;;0.00;;
44784;SDS011;30507;53.160;8.210;2023-04-25T11:43:37;0.10;;;0.10;;
44784;SDS011;30507;53.160;8.210;2023-04-25T11:46:06;0.20;;;0.07;;
44784;SDS011;30507;53.160;8.210;2023-04-25T11:48:36;0.03;;;0.03;;
44784;SDS011;30507;53.160;8.210;2023-04-25T11:51:01;0.05;;;0.05;;
44784;SDS011;30507;53.160;8.210;2023-04-25T11:53:26;0.20;;;0.10;;
44784;SDS011;30507;53.160;8.210;2023-04-25T11:55:53;0.52;;;0.13;;
44784;SDS011;30507;53.160;8.210;2023-04-25T11:58:18;0.10;;;0.10;;
44784;SDS011;30507;53.160;8.210;2023-04-25T12:00:44;0.00;;;0.00;;
44784;SDS011;30507;53.160;8.210;2023-04-25T12:03:09;0.10;;;0.10;;
44784;SDS011;30507;53.160;8.210;2023-04-25T12:05:34;0.10;;;0.10;;
44784;SDS011;30507;53.160;8.210;2023-04-25T12:08:10;0.30;;;0.20;;
44784;SDS011;30507;53.160;8.210;2023-04-25T12:10:37;0.20;;;0.03;;
44784;SDS011;30507;53.160;8.210;2023-04-25T12:13:17;0.28;;;0.10;;
44784;SDS011;30507;53.160;8.210;2023-04-25T12:15:42;0.10;;;0.10;;
44784;SDS011;30507;53.160;8.210;2023-04-25T12:18:07;0.10;;;0.00;;
44784;SDS011;30507;53.160;8.210;2023-04-25T12:20:32;0.13;;;0.03;;
44784;SDS011;30507;53.160;8.210;2023-04-25T12:22:57;0.07;;;0.07;;
44784;SDS011;30507;53.160;8.210;2023-04-25T12:25:39;0.13;;;0.08;;
44784;SDS011;30507;53.160;8.210;2023-04-25T12:28:20;0.40;;;0.20;;
44784;SDS011;30507;53.160;8.210;2023-04-25T12:30:52;0.40;;;0.10;;
44784;SDS011;30507;53.160;8.210;2023-04-25T12:33:18;0.10;;;0.10;;
44784;SDS011;30507;53.160;8.210;2023-04-25T12:35:43;0.27;;;0.13;;
44784;SDS011;30507;53.160;8.210;2023-04-25T12:38:08;0.20;;;0.20;;
44784;SDS011;30507;53.160;8.210;2023-04-25T12:40:33;0.10;;;0.10;;
44784;SDS011;30507;53.160;8.210;2023-04-25T12:42:58;0.10;;;0.10;;
44784;SDS011;30507;53.160;8.210;2023-04-25T12:45:23;0.10;;;0.10;;
44784;SDS011;30507;53.160;8.210;2023-04-25T12:47:49;0.22;;;0.17;;
44784;SDS011;30507;53.160;8.210;2023-04-25T12:50:14;0.35;;;0.20;;
44784;SDS011;30507;53.160;8.210;2023-04-25T12:52:39;0.47;;;0.13;;
44784;SDS011;30507;53.160;8.210;2023-04-25T12:55:05;0.10;;;0.10;;
44784;SDS011;30507;53.160;8.210;2023-04-25T12:57:30;0.13;;;0.00;;
44784;SDS011;30507;53.160;8.210;2023-04-25T12:59:55;0.60;;;0.35;;
44784;SDS011;30507;53.160;8.210;2023-04-25T13:02:21;0.10;;;0.10;;
44784;SDS011;30507;53.160;8.210;2023-04-25T13:04:46;0.15;;;0.10;;
44784;SDS011;30507;53.160;8.210;2023-04-25T13:07:11;0.57;;;0.27;;
44784;SDS011;30507;53.160;8.210;2023-04-25T13:09:36;1.90;;;0.13;;
44784;SDS011;30507;53.160;8.210;2023-04-25T13:12:01;0.17;;;0.10;;
44784;SDS011;30507;53.160;8.210;2023-04-25T13:14:26;0.10;;;0.10;;
44784;SDS011;30507;53.160;8.210;2023-04-25T13:16:51;0.10;;;0.10;;
44784;SDS011;30507;53.160;8.210;2023-04-25T13:19:17;0.43;;;0.30;;
44784;SDS011;30507;53.160;8.210;2023-04-25T13:21:42;0.00;;;0.00;;
44784;SDS011;30507;53.160;8.210;2023-04-25T13:24:07;0.13;;;0.10;;
44784;SDS011;30507;53.160;8.210;2023-04-25T13:26:32;0.20;;;0.20;;
44784;SDS011;30507;53.160;8.210;2023-04-25T13:28:57;0.20;;;0.10;;
44784;SDS011;30507;53.160;8.210;2023-04-25T13:31:22;0.40;;;0.40;;
44784;SDS011;30507;53.160;8.210;2023-04-25T13:33:48;0.10;;;0.10;;
44784;SDS011;30507;53.160;8.210;2023-04-25T13:36:13;0.10;;;0.10;;
44784;SDS011;30507;53.160;8.210;2023-04-25T13:38:38;0.10;;;0.10;;
44784;SDS011;30507;53.160;8.210;2023-04-25T13:41:04;0.45;;;0.43;;
44784;SDS011;30507;53.160;8.210;2023-04-25T13:43:31;0.10;;;0.10;;
44784;SDS011;30507;53.160;8.210;2023-04-25T13:45:57;0.30;;;0.10;;
44784;SDS011;30507;53.160;8.210;2023-04-25T13:48:22;0.05;;;0.05;;
44784;SDS011;30507;53.160;8.210;2023-04-25T13:50:48;0.15;;;0.10;;
44784;SDS011;30507;53.160;8.210;2023-04-25T13:53:13;0.17;;;0.10;;
44784;SDS011;30507;53.160;8.210;2023-04-25T13:55:38;0.20;;;0.20;;
44784;SDS011;30507;53.160;8.210;2023-04-25T13:58:03;0.27;;;0.27;;
44784;SDS011;30507;53.160;8.210;2023-04-25T14:00:32;0.10;;;0.10;;
44784;SDS011;30507;53.160;8.210;2023-04-25T14:02:57;0.20;;;0.03;;
44784;SDS011;30507;53.160;8.210;2023-04-25T14:05:23;0.27;;;0.10;;
44784;SDS011;30507;53.160;8.210;2023-04-25T14:07:48;0.10;;;0.00;;
44784;SDS011;30507;53.160;8.210;2023-04-25T14:10:13;0.47;;;0.00;;
44784;SDS011;30507;53.160;8.210;2023-04-25T14:12:38;0.30;;;0.08;;
44784;SDS011;30507;53.160;8.210;2023-04-25T14:15:03;0.28;;;0.28;;
44784;SDS011;30507;53.160;8.210;2023-04-25T14:17:29;0.15;;;0.08;;
44784;SDS011;30507;53.160;8.210;2023-04-25T14:19:54;0.30;;;0.10;;
44784;SDS011;30507;53.160;8.210;2023-04-25T14:22:19;0.30;;;0.10;;
44784;SDS011;30507;53.160;8.210;2023-04-25T14:24:45;0.47;;;0.10;;
44784;SDS011;30507;53.160;8.210;2023-04-25T14:27:10;0.30;;;0.20;;
44784;SDS011;30507;53.160;8.210;2023-04-25T14:29:35;0.03;;;0.03;;
44784;SDS011;30507;53.160;8.210;2023-04-25T14:32:00;0.00;;;0.00;;
44784;SDS011;30507;53.160;8.210;2023-04-25T14:34:25;0.10;;;0.00;;
44784;SDS011;30507;53.160;8.210;2023-04-25T14:36:51;0.30;;;0.30;;
44784;SDS011;30507;53.160;8.210;2023-04-25T14:39:16;0.20;;;0.10;;
44784;SDS011;30507;53.160;8.210;2023-04-25T14:41:42;1.67;;;0.32;;
44784;SDS011;30507;53.160;8.210;2023-04-25T14:44:07;0.00;;;0.00;;